^^
Meteo Knjazevac Station Historical Data
Daily Summary for June 13, 2022 Units:  Both    English   Metric
Daily Weekly Monthly Yearly Custom
  High: Low: Average:
Temperature: 77.5 °F /  25.3 °C 63.7 °F /  17.6 °C 70.3 °F /  21.3 °C
Dew Point: 67.9 °F /  19.9 °C 61.8 °F /  16.6 °C 64.9 °F /  18.3 °C
Humidity: 99% 68.5% 84%
Wind Speed: 7.2mph /  11.6km/h - 2.9mph /  4.7km/h
Wind Gust: 9mph /  14.5km/h - -
Wind- - ESE
Pressure: 30.00 in /  1015.8 hPa 29.91 in /  1012.8 hPa -
Precipitation: 0.05 in /  1.27 mm    
Historical Graphs
 
 
Tabular Data for June 13, 2022
Time Temperature Dew Point Pressure Wind Wind Speed Wind Gust Humidity Rainfall Rate (Hourly) solar Conditions
00:03 71.1 °F /  21.7 °C 62.7 °F /  17.1 °C 30.00in /  1015.8hPa ESE 1.6mph /  2.6km/h 3mph /  4.8km/h 74.8% 0.00in /  0mm 0 W/m2
00:09 70.9 °F /  21.6 °C 62.6 °F /  17 °C 30.00in /  1015.8hPa ENE 2.8mph /  4.5km/h 2mph /  3.2km/h 75% 0.00in /  0mm 0 W/m2
00:14 70.7 °F /  21.5 °C 62.4 °F /  16.9 °C 30.00in /  1015.8hPa East 3.3mph /  5.3km/h 3mph /  4.8km/h 75% 0.00in /  0mm 0 W/m2
00:19 70.6 °F /  21.4 °C 62.3 °F /  16.8 °C 30.00in /  1015.8hPa SE 3.5mph /  5.6km/h 5mph /  8km/h 75% 0.00in /  0mm 0 W/m2
00:24 70.4 °F /  21.3 °C 62.4 °F /  16.9 °C 29.99in /  1015.5hPa SE 4.7mph /  7.6km/h 5mph /  8km/h 75.7% 0.00in /  0mm 0 W/m2
00:29 70.2 °F /  21.2 °C 62.6 °F /  17 °C 29.99in /  1015.5hPa SE 3.3mph /  5.3km/h 6mph /  9.7km/h 76.9% 0.00in /  0mm 0 W/m2
00:34 70.1 °F /  21.2 °C 62.4 °F /  16.9 °C 29.99in /  1015.5hPa ESE 3.6mph /  5.8km/h 4mph /  6.4km/h 76.8% 0.00in /  0mm 0 W/m2
00:39 69.9 °F /  21.1 °C 62.3 °F /  16.8 °C 29.99in /  1015.5hPa East 4.1mph /  6.6km/h 5mph /  8km/h 77% 0.00in /  0mm 0 W/m2
00:44 69.5 °F /  20.8 °C 62.1 °F /  16.7 °C 29.99in /  1015.5hPa ESE 5.2mph /  8.4km/h 5mph /  8km/h 77.2% 0.00in /  0mm 0 W/m2
00:49 69.3 °F /  20.7 °C 62.1 °F /  16.7 °C 29.99in /  1015.5hPa ESE 3.7mph /  6km/h 6mph /  9.7km/h 78% 0.00in /  0mm 0 W/m2
00:54 69.3 °F /  20.7 °C 62.1 °F /  16.7 °C 29.99in /  1015.5hPa ESE 2.6mph /  4.2km/h 3mph /  4.8km/h 78% 0.00in /  0mm 0 W/m2
00:59 69.1 °F /  20.6 °C 62.1 °F /  16.7 °C 29.99in /  1015.5hPa ENE 2.2mph /  3.5km/h 3mph /  4.8km/h 78.4% 0.00in /  0mm 0 W/m2
01:04 69 °F /  20.6 °C 62.2 °F /  16.8 °C 29.99in /  1015.5hPa North 2.7mph /  4.3km/h 2mph /  3.2km/h 79% 0.00in /  0mm 0 W/m2
01:09 68.8 °F /  20.4 °C 62 °F /  16.7 °C 29.99in /  1015.5hPa NW 2.2mph /  3.5km/h 3mph /  4.8km/h 79% 0.00in /  0mm 0 W/m2
01:14 68.6 °F /  20.3 °C 61.9 °F /  16.6 °C 29.99in /  1015.5hPa NE 2.2mph /  3.5km/h 1.1mph /  1.8km/h 79.1% 0.00in /  0mm 0 W/m2
01:19 68.5 °F /  20.3 °C 61.8 °F /  16.6 °C 29.99in /  1015.5hPa East 3.1mph /  5km/h 1.3mph /  2.1km/h 79.2% 0.00in /  0mm 0 W/m2
01:24 68.4 °F /  20.2 °C 62 °F /  16.7 °C 29.99in /  1015.5hPa SE 2.9mph /  4.7km/h 3mph /  4.8km/h 80% 0.00in /  0mm 0 W/m2
01:29 68.4 °F /  20.2 °C 61.9 °F /  16.6 °C 29.98in /  1015.1hPa SSE 4.9mph /  7.9km/h 3mph /  4.8km/h 80% 0.00in /  0mm 0 W/m2
01:34 68.4 °F /  20.2 °C 61.9 °F /  16.6 °C 29.98in /  1015.1hPa SE 2.8mph /  4.5km/h 6mph /  9.7km/h 80% 0.00in /  0mm 0 W/m2
01:39 68.4 °F /  20.2 °C 61.9 °F /  16.6 °C 29.98in /  1015.1hPa SE 2.8mph /  4.5km/h 3mph /  4.8km/h 80% 0.00in /  0mm 0 W/m2
01:44 68.4 °F /  20.2 °C 62.1 °F /  16.7 °C 29.98in /  1015.1hPa ESE 1.3mph /  2.1km/h 3mph /  4.8km/h 80.6% 0.00in /  0mm 0 W/m2
01:49 68.3 °F /  20.2 °C 62.1 °F /  16.7 °C 29.98in /  1015.1hPa NE 2.5mph /  4km/h 2.5mph /  4km/h 80.7% 0.00in /  0mm 0 W/m2
01:54 68.2 °F /  20.1 °C 62.1 °F /  16.7 °C 29.98in /  1015.1hPa NE 3.1mph /  5km/h 3mph /  4.8km/h 80.9% 0.00in /  0mm 0 W/m2
01:59 68 °F /  20 °C 61.9 °F /  16.6 °C 29.97in /  1014.8hPa NE 3.2mph /  5.1km/h 3mph /  4.8km/h 81% 0.00in /  0mm 0 W/m2
02:04 67.8 °F /  19.9 °C 62.6 °F /  17 °C 29.97in /  1014.8hPa ENE 1.4mph /  2.3km/h 4mph /  6.4km/h 83.4% 0.00in /  0mm 0 W/m2
02:09 67.6 °F /  19.8 °C 62.6 °F /  17 °C 29.97in /  1014.8hPa NNW 0.4mph /  0.6km/h 0.2mph /  0.3km/h 84% 0.00in /  0mm 0 W/m2
02:14 67.4 °F /  19.7 °C 62.5 °F /  16.9 °C 29.97in /  1014.8hPa NNW 2.1mph /  3.4km/h 2mph /  3.2km/h 84.4% 0.00in /  0mm 0 W/m2
02:19 67.1 °F /  19.5 °C 62.4 °F /  16.9 °C 29.97in /  1014.8hPa NW 2.2mph /  3.5km/h 3mph /  4.8km/h 85% 0.00in /  0mm 0 W/m2
02:24 66.9 °F /  19.4 °C 62.3 °F /  16.8 °C 29.97in /  1014.8hPa WNW 3mph /  4.8km/h 2.5mph /  4km/h 85% 0.00in /  0mm 0 W/m2
02:29 66.7 °F /  19.3 °C 62.3 °F /  16.8 °C 29.97in /  1014.8hPa WNW 2.7mph /  4.3km/h 1.6mph /  2.6km/h 85.8% 0.00in /  0mm 0 W/m2
02:34 66.7 °F /  19.3 °C 62.3 °F /  16.8 °C 29.97in /  1014.8hPa WNW 2mph /  3.2km/h 3mph /  4.8km/h 86% 0.00in /  0mm 0 W/m2
02:39 66.5 °F /  19.2 °C 62.2 °F /  16.8 °C 29.97in /  1014.8hPa WNW 1.7mph /  2.7km/h 3mph /  4.8km/h 86% 0.00in /  0mm 0 W/m2
02:44 66.4 °F /  19.1 °C 62.5 °F /  16.9 °C 29.97in /  1014.8hPa West 2mph /  3.2km/h 2mph /  3.2km/h 87.3% 0.00in /  0mm 0 W/m2
02:49 66.4 °F /  19.1 °C 62.7 °F /  17.1 °C 29.97in /  1014.8hPa West 2.1mph /  3.4km/h 2mph /  3.2km/h 88% 0.00in /  0mm 0 W/m2
02:54 66.1 °F /  18.9 °C 62.5 °F /  16.9 °C 29.97in /  1014.8hPa West 2mph /  3.2km/h 2mph /  3.2km/h 88% 0.00in /  0mm 0 W/m2
02:59 66 °F /  18.9 °C 62.4 °F /  16.9 °C 29.97in /  1014.8hPa WSW 1.9mph /  3.1km/h 0.7mph /  1.1km/h 88% 0.00in /  0mm 0 W/m2
03:04 65.9 °F /  18.8 °C 62.3 °F /  16.8 °C 29.97in /  1014.8hPa NW 1.8mph /  2.9km/h 2mph /  3.2km/h 88% 0.00in /  0mm 0 W/m2
03:09 65.8 °F /  18.8 °C 62.2 °F /  16.8 °C 29.97in /  1014.8hPa NNW 0.6mph /  1km/h 2mph /  3.2km/h 88% 0.00in /  0mm 0 W/m2
03:14 65.8 °F /  18.8 °C 62.2 °F /  16.8 °C 29.97in /  1014.8hPa NNW 0.4mph /  0.6km/h 2mph /  3.2km/h 88% 0.00in /  0mm 0 W/m2
03:19 65.8 °F /  18.8 °C 62.3 °F /  16.8 °C 29.97in /  1014.8hPa Calm   1mph /  1.6km/h 88.5% 0.00in /  0mm 0 W/m2
03:24 65.7 °F /  18.7 °C 62.4 °F /  16.9 °C 29.97in /  1014.8hPa Calm     89% 0.00in /  0mm 0 W/m2
03:29 65.7 °F /  18.7 °C 62.3 °F /  16.8 °C 29.97in /  1014.8hPa Calm     89% 0.00in /  0mm 0 W/m2
03:34 65.7 °F /  18.7 °C 62.3 °F /  16.8 °C 29.97in /  1014.8hPa North 0.1mph /  0.2km/h   89% 0.00in /  0mm 0 W/m2
03:39 65.7 °F /  18.7 °C 62.3 °F /  16.8 °C 29.97in /  1014.8hPa North 0.6mph /  1km/h 2mph /  3.2km/h 89% 0.00in /  0mm 0 W/m2
03:44 65.7 °F /  18.7 °C 62.5 °F /  16.9 °C 29.97in /  1014.8hPa Calm   2mph /  3.2km/h 89.8% 0.00in /  0mm 0 W/m2
03:49 65.7 °F /  18.7 °C 62.6 °F /  17 °C 29.97in /  1014.8hPa NNE 0.5mph /  0.8km/h 1.1mph /  1.8km/h 90% 0.00in /  0mm 0 W/m2
03:54 65.7 °F /  18.7 °C 62.6 °F /  17 °C 29.97in /  1014.8hPa NNE 2.2mph /  3.5km/h 2mph /  3.2km/h 90% 0.00in /  0mm 0 W/m2
03:59 65.7 °F /  18.7 °C 62.4 °F /  16.9 °C 29.97in /  1014.8hPa NNE 2.3mph /  3.7km/h 2.2mph /  3.5km/h 89.4% 0.00in /  0mm 0 W/m2
04:03 65.7 °F /  18.7 °C 62.3 °F /  16.8 °C 29.97in /  1014.8hPa NNE 1.9mph /  3.1km/h 3mph /  4.8km/h 89% 0.00in /  0mm 0 W/m2
04:09 65.8 °F /  18.8 °C 62.5 °F /  16.9 °C 29.97in /  1014.8hPa NNE 2.4mph /  3.9km/h 2mph /  3.2km/h 89% 0.00in /  0mm 0 W/m2
04:14 65.8 °F /  18.8 °C 62.4 °F /  16.9 °C 29.97in /  1014.8hPa NE 3.3mph /  5.3km/h 4mph /  6.4km/h 88.6% 0.00in /  0mm 0 W/m2
04:19 65.8 °F /  18.8 °C 62.2 °F /  16.8 °C 29.97in /  1014.8hPa ENE 2.2mph /  3.5km/h 4mph /  6.4km/h 88% 0.00in /  0mm 0 W/m2
04:24 65.9 °F /  18.8 °C 62.3 °F /  16.8 °C 29.97in /  1014.8hPa NE 2mph /  3.2km/h 3mph /  4.8km/h 88% 0.00in /  0mm 0 W/m2
04:29 65.8 °F /  18.8 °C 62.5 °F /  16.9 °C 29.97in /  1014.8hPa ENE 2mph /  3.2km/h 2mph /  3.2km/h 88.9% 0.00in /  0mm 0 W/m2
04:34 65.7 °F /  18.7 °C 62.6 °F /  17 °C 29.97in /  1014.8hPa SSW 2.2mph /  3.5km/h 2mph /  3.2km/h 89.7% 0.00in /  0mm 0 W/m2
04:39 65.5 °F /  18.6 °C 62.7 °F /  17.1 °C 29.97in /  1014.8hPa WSW 2.3mph /  3.7km/h 2mph /  3.2km/h 90.5% 0.00in /  0mm 0 W/m2
04:44 65.3 °F /  18.5 °C 62.8 °F /  17.1 °C 29.97in /  1014.8hPa NW 2.4mph /  3.9km/h 2mph /  3.2km/h 91.8% 0.00in /  0mm 0 W/m2
04:49 65.1 °F /  18.4 °C 63.2 °F /  17.3 °C 29.98in /  1015.1hPa NNE 3.1mph /  5km/h 5mph /  8km/h 93.5% 0.00in /  0mm 0 W/m2
04:54 65.1 °F /  18.4 °C 63.4 °F /  17.4 °C 29.98in /  1015.1hPa NE 1.5mph /  2.4km/h 5mph /  8km/h 94.2% 0.01in /  0.25mm 0 W/m2
04:59 64.9 °F /  18.3 °C 63.2 °F /  17.3 °C 29.98in /  1015.1hPa North 2.2mph /  3.5km/h 2mph /  3.2km/h 94.1% 0.02in /  0.51mm 0 W/m2
05:04 64.8 °F /  18.2 °C 63.3 °F /  17.4 °C 29.98in /  1015.1hPa WNW 2mph /  3.2km/h 2mph /  3.2km/h 94.9% 0.02in /  0.51mm 0 W/m2
05:09 64.7 °F /  18.2 °C 63.4 °F /  17.4 °C 29.98in /  1015.1hPa NNE 4mph /  6.4km/h 3.1mph /  5km/h 95.9% 0.03in /  0.76mm 0 W/m2
05:14 64.6 °F /  18.1 °C 63.4 °F /  17.4 °C 29.98in /  1015.1hPa NE 3.8mph /  6.1km/h 5mph /  8km/h 96% 0.03in /  0.76mm 0 W/m2
05:19 64.5 °F /  18.1 °C 63.5 °F /  17.5 °C 29.98in /  1015.1hPa NNE 3.7mph /  6km/h 5mph /  8km/h 96.7% 0.04in /  1.02mm 0 W/m2
05:24 64.3 °F /  17.9 °C 63.8 °F /  17.7 °C 29.98in /  1015.1hPa NNE 3.2mph /  5.1km/h 4mph /  6.4km/h 98.3% 0.04in /  1.02mm 0 W/m2
05:29 64 °F /  17.8 °C 63.8 °F /  17.7 °C 29.98in /  1015.1hPa SSE 2.7mph /  4.3km/h 1.3mph /  2.1km/h 99% 0.04in /  1.02mm 0 W/m2
05:34 63.9 °F /  17.7 °C 63.6 °F /  17.6 °C 29.98in /  1015.1hPa SE 0.9mph /  1.4km/h 4mph /  6.4km/h 99% 0.04in /  1.02mm 0 W/m2
05:39 63.9 °F /  17.7 °C 63.6 °F /  17.6 °C 29.98in /  1015.1hPa North 0.8mph /  1.3km/h 2mph /  3.2km/h 99% 0.04in /  1.02mm 1 W/m2
05:44 63.8 °F /  17.7 °C 63.5 °F /  17.5 °C 29.98in /  1015.1hPa NNW 1.5mph /  2.4km/h 1.6mph /  2.6km/h 99% 0.04in /  1.02mm 2 W/m2
05:49 63.7 °F /  17.6 °C 63.4 °F /  17.4 °C 29.97in /  1014.8hPa NW 1.8mph /  2.9km/h 2mph /  3.2km/h 99% 0.04in /  1.02mm 3 W/m2
05:54 63.7 °F /  17.6 °C 63.4 °F /  17.4 °C 29.97in /  1014.8hPa WNW 1.6mph /  2.6km/h 2mph /  3.2km/h 99% 0.04in /  1.02mm 5 W/m2
05:59 63.7 °F /  17.6 °C 63.4 °F /  17.4 °C 29.97in /  1014.8hPa NW 2.9mph /  4.7km/h 2.7mph /  4.3km/h 99% 0.03in /  0.76mm 8 W/m2
06:04 63.7 °F /  17.6 °C 63.4 °F /  17.4 °C 29.98in /  1015.1hPa NE 2.7mph /  4.3km/h 4mph /  6.4km/h 99% 0.02in /  0.51mm 8 W/m2
06:08 63.7 °F /  17.6 °C 63.4 °F /  17.4 °C 29.98in /  1015.1hPa NE 0.8mph /  1.3km/h 4mph /  6.4km/h 99% 0.02in /  0.51mm 9 W/m2
06:14 63.7 °F /  17.6 °C 63.4 °F /  17.4 °C 29.97in /  1014.8hPa Calm   1mph /  1.6km/h 99% 0.02in /  0.51mm 11 W/m2
06:19 63.7 °F /  17.6 °C 63.4 °F /  17.4 °C 29.98in /  1015.1hPa SE 1.1mph /  1.8km/h 1.3mph /  2.1km/h 99% 0.01in /  0.25mm 12 W/m2
06:24 63.7 °F /  17.6 °C 63.4 °F /  17.4 °C 29.97in /  1014.8hPa East 0.8mph /  1.3km/h 2mph /  3.2km/h 99% 0.00in /  0mm 13 W/m2
06:29 63.7 °F /  17.6 °C 63.4 °F /  17.4 °C 29.97in /  1014.8hPa ENE 2.1mph /  3.4km/h 2mph /  3.2km/h 99% 0.00in /  0mm 14 W/m2
06:34 63.7 °F /  17.6 °C 63.4 °F /  17.4 °C 29.97in /  1014.8hPa WNW 1.5mph /  2.4km/h 3mph /  4.8km/h 99% 0.00in /  0mm 18 W/m2
06:39 63.7 °F /  17.6 °C 63.4 °F /  17.4 °C 29.97in /  1014.8hPa NW 0.4mph /  0.6km/h 2mph /  3.2km/h 99% 0.00in /  0mm 23 W/m2
06:44 63.7 °F /  17.6 °C 63.4 °F /  17.4 °C 29.97in /  1014.8hPa Calm   2mph /  3.2km/h 99% 0.00in /  0mm 28 W/m2
06:49 63.7 °F /  17.6 °C 63.4 °F /  17.4 °C 29.97in /  1014.8hPa North 0.9mph /  1.4km/h 1.1mph /  1.8km/h 99% 0.00in /  0mm 34 W/m2
06:53 63.7 °F /  17.6 °C 63.4 °F /  17.4 °C 29.98in /  1015.1hPa NW 2mph /  3.2km/h 2mph /  3.2km/h 99% 0.00in /  0mm 38 W/m2
06:59 63.7 °F /  17.6 °C 63.4 °F /  17.4 °C 29.98in /  1015.1hPa West 1.8mph /  2.9km/h 2mph /  3.2km/h 99% 0.00in /  0mm 43 W/m2
07:04 63.9 °F /  17.7 °C 63.6 °F /  17.6 °C 29.98in /  1015.1hPa WNW 1.7mph /  2.7km/h 2mph /  3.2km/h 99% 0.00in /  0mm 51 W/m2
07:08 63.9 °F /  17.7 °C 63.6 °F /  17.6 °C 29.98in /  1015.1hPa West 1.3mph /  2.1km/h 2mph /  3.2km/h 99% 0.00in /  0mm 58 W/m2
07:13 64 °F /  17.8 °C 63.8 °F /  17.7 °C 29.98in /  1015.1hPa West 1mph /  1.6km/h 2mph /  3.2km/h 99% 0.00in /  0mm 70 W/m2
07:19 64 °F /  17.8 °C 63.8 °F /  17.7 °C 29.98in /  1015.1hPa North 1.6mph /  2.6km/h 1.3mph /  2.1km/h 99% 0.00in /  0mm 85 W/m2
07:24 64.1 °F /  17.8 °C 63.8 °F /  17.7 °C 29.98in /  1015.1hPa NNE 1.7mph /  2.7km/h 2mph /  3.2km/h 99% 0.00in /  0mm 95 W/m2
07:29 64.3 °F /  17.9 °C 64 °F /  17.8 °C 29.98in /  1015.1hPa NNE 1.4mph /  2.3km/h 2mph /  3.2km/h 99% 0.00in /  0mm 101 W/m2
07:34 64.6 °F /  18.1 °C 64.3 °F /  17.9 °C 29.98in /  1015.1hPa NNE 1mph /  1.6km/h 2mph /  3.2km/h 99% 0.00in /  0mm 111 W/m2
07:39 64.6 °F /  18.1 °C 64.3 °F /  17.9 °C 29.98in /  1015.1hPa ENE 1.7mph /  2.7km/h 2mph /  3.2km/h 99% 0.00in /  0mm 120 W/m2
07:44 64.7 °F /  18.2 °C 64.4 °F /  18 °C 29.98in /  1015.1hPa SE 2mph /  3.2km/h 2mph /  3.2km/h 99% 0.00in /  0mm 120 W/m2
07:49 64.8 °F /  18.2 °C 64.5 °F /  18.1 °C 29.98in /  1015.1hPa SSE 1mph /  1.6km/h 3mph /  4.8km/h 99% 0.00in /  0mm 114 W/m2
07:54 64.8 °F /  18.2 °C 64.5 °F /  18.1 °C 29.98in /  1015.1hPa Calm     99% 0.00in /  0mm 121 W/m2
07:59 65 °F /  18.3 °C 64.7 °F /  18.2 °C 29.98in /  1015.1hPa SSE 0.6mph /  1km/h 0.2mph /  0.3km/h 99% 0.00in /  0mm 135 W/m2
08:04 65.2 °F /  18.4 °C 64.9 °F /  18.3 °C 29.98in /  1015.1hPa Calm   1mph /  1.6km/h 99% 0.00in /  0mm 147 W/m2
08:09 65.4 °F /  18.6 °C 65.1 °F /  18.4 °C 29.99in /  1015.5hPa North 0.5mph /  0.8km/h 0.4mph /  0.6km/h 99% 0.00in /  0mm 152 W/m2
08:14 65.5 °F /  18.6 °C 65.2 °F /  18.4 °C 29.99in /  1015.5hPa NNW 1.2mph /  1.9km/h 2mph /  3.2km/h 99% 0.00in /  0mm 151 W/m2
08:19 65.7 °F /  18.7 °C 65.5 °F /  18.6 °C 29.99in /  1015.5hPa WNW 1.1mph /  1.8km/h 2mph /  3.2km/h 99% 0.00in /  0mm 137 W/m2
08:24 65.9 °F /  18.8 °C 65.6 °F /  18.7 °C 29.99in /  1015.5hPa WNW 1.7mph /  2.7km/h 1.1mph /  1.8km/h 98.9% 0.00in /  0mm 128 W/m2
08:29 66 °F /  18.9 °C 65.5 °F /  18.6 °C 29.99in /  1015.5hPa NW 1.4mph /  2.3km/h 2mph /  3.2km/h 98.2% 0.00in /  0mm 149 W/m2
08:34 66.2 °F /  19 °C 65.9 °F /  18.8 °C 29.99in /  1015.5hPa NNW 1.9mph /  3.1km/h 1.1mph /  1.8km/h 99% 0.00in /  0mm 162 W/m2
08:39 66.4 °F /  19.1 °C 65.8 °F /  18.8 °C 29.99in /  1015.5hPa North 3.3mph /  5.3km/h 3mph /  4.8km/h 98.1% 0.00in /  0mm 171 W/m2
08:44 66.6 °F /  19.2 °C 66.1 °F /  18.9 °C 29.99in /  1015.5hPa North 2.5mph /  4km/h 3mph /  4.8km/h 98% 0.00in /  0mm 175 W/m2
08:49 66.8 °F /  19.3 °C 66.2 °F /  19 °C 29.99in /  1015.5hPa NNE 3.5mph /  5.6km/h 2.5mph /  4km/h 98% 0.00in /  0mm 180 W/m2
08:54 67 °F /  19.4 °C 66.4 °F /  19.1 °C 29.99in /  1015.5hPa NNE 2.8mph /  4.5km/h 3mph /  4.8km/h 98% 0.00in /  0mm 194 W/m2
08:59 67.2 °F /  19.6 °C 66.1 °F /  18.9 °C 29.99in /  1015.5hPa North 2.9mph /  4.7km/h 2mph /  3.2km/h 96.3% 0.00in /  0mm 211 W/m2
09:04 67.4 °F /  19.7 °C 66.2 °F /  19 °C 29.99in /  1015.5hPa North 3.4mph /  5.5km/h 3.1mph /  5km/h 96% 0.00in /  0mm 231 W/m2
09:09 67.6 °F /  19.8 °C 66.4 °F /  19.1 °C 29.99in /  1015.5hPa North 4.1mph /  6.6km/h 5mph /  8km/h 96% 0.00in /  0mm 245 W/m2
09:14 67.8 °F /  19.9 °C 66.4 °F /  19.1 °C 29.99in /  1015.5hPa North 3.3mph /  5.3km/h 5mph /  8km/h 95.4% 0.00in /  0mm 252 W/m2
09:19 67.9 °F /  19.9 °C 66.6 °F /  19.2 °C 29.99in /  1015.5hPa North 3.7mph /  6km/h 4mph /  6.4km/h 95.4% 0.00in /  0mm 254 W/m2
09:24 68.2 °F /  20.1 °C 66.5 °F /  19.2 °C 29.99in /  1015.5hPa North 3.1mph /  5km/h 5mph /  8km/h 94.2% 0.00in /  0mm 250 W/m2
09:29 68.4 °F /  20.2 °C 66.4 °F /  19.1 °C 29.99in /  1015.5hPa North 3.2mph /  5.1km/h 5mph /  8km/h 93.3% 0.00in /  0mm 228 W/m2
09:33 68.5 °F /  20.3 °C 66.4 °F /  19.1 °C 29.99in /  1015.5hPa North 2.7mph /  4.3km/h 4mph /  6.4km/h 93% 0.00in /  0mm 200 W/m2
09:39 68.6 °F /  20.3 °C 66 °F /  18.9 °C 29.99in /  1015.5hPa NNE 3.2mph /  5.1km/h 4mph /  6.4km/h 91.4% 0.00in /  0mm 194 W/m2
09:44 68.7 °F /  20.4 °C 66.5 °F /  19.2 °C 29.99in /  1015.5hPa NNE 2.8mph /  4.5km/h 1.3mph /  2.1km/h 92.8% 0.00in /  0mm 237 W/m2
09:49 68.9 °F /  20.5 °C 66.5 °F /  19.2 °C 29.99in /  1015.5hPa North 3mph /  4.8km/h 4mph /  6.4km/h 92.2% 0.00in /  0mm 244 W/m2
09:54 68.9 °F /  20.5 °C 66.2 °F /  19 °C 29.99in /  1015.5hPa NNE 3.3mph /  5.3km/h 3mph /  4.8km/h 90.9% 0.00in /  0mm 222 W/m2
09:59 68.8 °F /  20.4 °C 65.6 °F /  18.7 °C 29.99in /  1015.5hPa NNE 3.1mph /  5km/h 1.6mph /  2.6km/h 89.4% 0.00in /  0mm 210 W/m2
10:04 68.7 °F /  20.4 °C 65.3 °F /  18.5 °C 29.99in /  1015.5hPa NNE 3.1mph /  5km/h 4mph /  6.4km/h 89.1% 0.00in /  0mm 173 W/m2
10:09 68.7 °F /  20.4 °C 65.6 °F /  18.7 °C 29.99in /  1015.5hPa NNE 2.7mph /  4.3km/h 4mph /  6.4km/h 89.7% 0.00in /  0mm 156 W/m2
10:14 68.7 °F /  20.4 °C 65.4 °F /  18.6 °C 29.99in /  1015.5hPa NNE 2.5mph /  4km/h 1.1mph /  1.8km/h 89.3% 0.00in /  0mm 147 W/m2
10:18 68.6 °F /  20.3 °C 65.2 °F /  18.4 °C 29.99in /  1015.5hPa NE 1.9mph /  3.1km/h 3mph /  4.8km/h 88.9% 0.00in /  0mm 147 W/m2
10:24 68.7 °F /  20.4 °C 65.2 °F /  18.4 °C 29.99in /  1015.5hPa NE 3.7mph /  6km/h 3.1mph /  5km/h 88.7% 0.00in /  0mm 148 W/m2
10:29 68.8 °F /  20.4 °C 64.8 °F /  18.2 °C 29.99in /  1015.5hPa NNE 3.5mph /  5.6km/h 5mph /  8km/h 86.9% 0.00in /  0mm 148 W/m2
10:34 68.9 °F /  20.5 °C 65.2 °F /  18.4 °C 29.99in /  1015.5hPa NNE 3.3mph /  5.3km/h 5mph /  8km/h 88% 0.00in /  0mm 140 W/m2
10:39 69.1 °F /  20.6 °C 65.5 °F /  18.6 °C 29.99in /  1015.5hPa NNE 2mph /  3.2km/h 4mph /  6.4km/h 88.4% 0.00in /  0mm 151 W/m2
10:44 69.1 °F /  20.6 °C 65.1 °F /  18.4 °C 29.99in /  1015.5hPa NNE 1.8mph /  2.9km/h 3mph /  4.8km/h 87.1% 0.00in /  0mm 169 W/m2
10:49 69.2 °F /  20.7 °C 64.7 °F /  18.2 °C 29.99in /  1015.5hPa NNE 2.7mph /  4.3km/h 3mph /  4.8km/h 85.6% 0.00in /  0mm 186 W/m2
10:54 69.3 °F /  20.7 °C 64.5 °F /  18.1 °C 29.99in /  1015.5hPa NNE 2.3mph /  3.7km/h 4mph /  6.4km/h 84.7% 0.00in /  0mm 217 W/m2
10:59 69.4 °F /  20.8 °C 64.8 °F /  18.2 °C 29.99in /  1015.5hPa North 2.9mph /  4.7km/h 3mph /  4.8km/h 85.1% 0.00in /  0mm 242 W/m2
11:04 69.6 °F /  20.9 °C 64.9 °F /  18.3 °C 29.99in /  1015.5hPa North 2.5mph /  4km/h 3mph /  4.8km/h 85% 0.00in /  0mm 270 W/m2
11:08 69.8 °F /  21 °C 64.6 °F /  18.1 °C 29.99in /  1015.5hPa NNE 2.3mph /  3.7km/h 0.9mph /  1.4km/h 83.5% 0.00in /  0mm 285 W/m2
11:14 69.8 °F /  21 °C 64.7 °F /  18.2 °C 29.99in /  1015.5hPa NNE 3.7mph /  6km/h 3.1mph /  5km/h 83.9% 0.00in /  0mm 323 W/m2
11:19 70 °F /  21.1 °C 64.9 °F /  18.3 °C 29.99in /  1015.5hPa North 4.3mph /  6.9km/h 2.2mph /  3.5km/h 84% 0.00in /  0mm 324 W/m2
11:24 70.3 °F /  21.3 °C 65.3 °F /  18.5 °C 29.99in /  1015.5hPa North 4.4mph /  7.1km/h 3.8mph /  6.1km/h 84% 0.00in /  0mm 316 W/m2
11:29 70.6 °F /  21.4 °C 65.2 °F /  18.4 °C 29.99in /  1015.5hPa NNE 4.3mph /  6.9km/h 5mph /  8km/h 83% 0.00in /  0mm 344 W/m2
11:34 70.9 °F /  21.6 °C 65.6 °F /  18.7 °C 29.99in /  1015.5hPa NNE 4.2mph /  6.8km/h 5mph /  8km/h 83.5% 0.00in /  0mm 353 W/m2
11:39 71.2 °F /  21.8 °C 65.5 °F /  18.6 °C 29.98in /  1015.1hPa NNE 4.6mph /  7.4km/h 5mph /  8km/h 82.4% 0.00in /  0mm 368 W/m2
11:44 71.4 °F /  21.9 °C 65 °F /  18.3 °C 29.98in /  1015.1hPa NNE 4.3mph /  6.9km/h 5mph /  8km/h 80.2% 0.00in /  0mm 418 W/m2
11:49 71.5 °F /  21.9 °C 65 °F /  18.3 °C 29.98in /  1015.1hPa NNE 3.1mph /  5km/h 5mph /  8km/h 80% 0.00in /  0mm 432 W/m2
11:54 71.5 °F /  21.9 °C 64.8 °F /  18.2 °C 29.98in /  1015.1hPa NE 2.8mph /  4.5km/h 4mph /  6.4km/h 79.5% 0.00in /  0mm 353 W/m2
11:59 71.5 °F /  21.9 °C 65 °F /  18.3 °C 29.98in /  1015.1hPa NE 3.1mph /  5km/h 4mph /  6.4km/h 79.9% 0.00in /  0mm 286 W/m2
12:04 71.8 °F /  22.1 °C 64.9 °F /  18.3 °C 29.98in /  1015.1hPa NNE 3.4mph /  5.5km/h 5mph /  8km/h 79.1% 0.00in /  0mm 249 W/m2
12:08 71.9 °F /  22.2 °C 65.1 °F /  18.4 °C 29.98in /  1015.1hPa North 3.7mph /  6km/h 3.1mph /  5km/h 79.3% 0.00in /  0mm 280 W/m2
12:14 72 °F /  22.2 °C 65.1 °F /  18.4 °C 29.98in /  1015.1hPa North 4.3mph /  6.9km/h 5mph /  8km/h 79% 0.00in /  0mm 306 W/m2
12:19 72 °F /  22.2 °C 65.3 °F /  18.5 °C 29.98in /  1015.1hPa North 3.1mph /  5km/h 5mph /  8km/h 79.2% 0.00in /  0mm 349 W/m2
12:24 72.3 °F /  22.4 °C 65.2 °F /  18.4 °C 29.98in /  1015.1hPa North 3.5mph /  5.6km/h 5mph /  8km/h 78.5% 0.00in /  0mm 355 W/m2
12:29 72.4 °F /  22.4 °C 65.1 °F /  18.4 °C 29.98in /  1015.1hPa NNW 3.3mph /  5.3km/h 5mph /  8km/h 77.9% 0.00in /  0mm 364 W/m2
12:34 72.7 °F /  22.6 °C 65.3 °F /  18.5 °C 29.98in /  1015.1hPa NNW 3mph /  4.8km/h 1.6mph /  2.6km/h 77.5% 0.00in /  0mm 385 W/m2
12:39 72.7 °F /  22.6 °C 64.6 °F /  18.1 °C 29.98in /  1015.1hPa NNE 4.2mph /  6.8km/h 4mph /  6.4km/h 75.7% 0.00in /  0mm 373 W/m2
12:44 72.9 °F /  22.7 °C 64.9 °F /  18.3 °C 29.97in /  1014.8hPa NNE 4.1mph /  6.6km/h 6mph /  9.7km/h 76.1% 0.00in /  0mm 371 W/m2
12:49 73 °F /  22.8 °C 64.9 °F /  18.3 °C 29.97in /  1014.8hPa NNE 3mph /  4.8km/h 6mph /  9.7km/h 75.7% 0.00in /  0mm 346 W/m2
12:54 72.9 °F /  22.7 °C 64.7 °F /  18.2 °C 29.97in /  1014.8hPa NNE 4mph /  6.4km/h 7mph /  11.3km/h 75.5% 0.00in /  0mm 333 W/m2
12:59 72.7 °F /  22.6 °C 65.4 °F /  18.6 °C 29.97in /  1014.8hPa NE 5.1mph /  8.2km/h 4mph /  6.4km/h 78% 0.00in /  0mm 364 W/m2
13:04 72.6 °F /  22.6 °C 65.2 °F /  18.4 °C 29.97in /  1014.8hPa NE 3.5mph /  5.6km/h 6mph /  9.7km/h 77.7% 0.00in /  0mm 396 W/m2
13:09 72.6 °F /  22.6 °C 65.2 °F /  18.4 °C 29.97in /  1014.8hPa ENE 3.4mph /  5.5km/h 5mph /  8km/h 77.7% 0.00in /  0mm 486 W/m2
13:14 72.9 °F /  22.7 °C 65.9 °F /  18.8 °C 29.97in /  1014.8hPa ENE 3.7mph /  6km/h 4mph /  6.4km/h 78.6% 0.00in /  0mm 582 W/m2
13:19 73.6 °F /  23.1 °C 66.1 °F /  18.9 °C 29.97in /  1014.8hPa NNE 4.8mph /  7.7km/h 5mph /  8km/h 77.7% 0.00in /  0mm 481 W/m2
13:24 73.8 °F /  23.2 °C 65.5 °F /  18.6 °C 29.97in /  1014.8hPa NNE 2.5mph /  4km/h 9mph /  14.5km/h 75.4% 0.00in /  0mm 809 W/m2
13:29 74 °F /  23.3 °C 65.8 °F /  18.8 °C 29.96in /  1014.4hPa ENE 5.3mph /  8.5km/h 3.4mph /  5.5km/h 75.6% 0.00in /  0mm 820 W/m2
13:34 74.6 °F /  23.7 °C 65.6 °F /  18.7 °C 29.96in /  1014.4hPa ESE 4.7mph /  7.6km/h 2.7mph /  4.3km/h 73.8% 0.00in /  0mm 775 W/m2
13:39 75.1 °F /  23.9 °C 66 °F /  18.9 °C 29.96in /  1014.4hPa ENE 4.9mph /  7.9km/h 5mph /  8km/h 73.4% 0.00in /  0mm 783 W/m2
13:44 75.3 °F /  24.1 °C 65.7 °F /  18.7 °C 29.96in /  1014.4hPa NNE 3.3mph /  5.3km/h 6mph /  9.7km/h 72.2% 0.00in /  0mm 769 W/m2
13:49 75.5 °F /  24.2 °C 66.1 °F /  18.9 °C 29.96in /  1014.4hPa East 4.2mph /  6.8km/h 5mph /  8km/h 72.9% 0.00in /  0mm 757 W/m2
13:54 75.9 °F /  24.4 °C 65.9 °F /  18.8 °C 29.96in /  1014.4hPa East 4.8mph /  7.7km/h 6mph /  9.7km/h 71.3% 0.00in /  0mm 752 W/m2
13:59 75.7 °F /  24.3 °C 65.3 °F /  18.5 °C 29.95in /  1014.1hPa ENE 5.3mph /  8.5km/h 6mph /  9.7km/h 70.1% 0.00in /  0mm 716 W/m2
14:04 75.7 °F /  24.3 °C 65.6 °F /  18.7 °C 29.95in /  1014.1hPa ESE 3.7mph /  6km/h 7mph /  11.3km/h 70.9% 0.00in /  0mm 627 W/m2
14:09 75.8 °F /  24.3 °C 65.8 °F /  18.8 °C 29.95in /  1014.1hPa ESE 4.3mph /  6.9km/h 5mph /  8km/h 71% 0.00in /  0mm 523 W/m2
14:14 75.8 °F /  24.3 °C 65.6 °F /  18.7 °C 29.95in /  1014.1hPa East 5.6mph /  9km/h 3.6mph /  5.8km/h 70.5% 0.00in /  0mm 613 W/m2
14:19 76.2 °F /  24.6 °C 65.9 °F /  18.8 °C 29.95in /  1014.1hPa ENE 3.4mph /  5.5km/h 7mph /  11.3km/h 70.7% 0.00in /  0mm 707 W/m2
14:24 76.4 °F /  24.7 °C 65.9 °F /  18.8 °C 29.95in /  1014.1hPa NE 3.5mph /  5.6km/h 5mph /  8km/h 70% 0.00in /  0mm 717 W/m2
14:29 76.4 °F /  24.7 °C 65.8 °F /  18.8 °C 29.94in /  1013.8hPa ENE 3.8mph /  6.1km/h 4mph /  6.4km/h 70% 0.00in /  0mm 498 W/m2
14:34 76.4 °F /  24.7 °C 66.3 °F /  19.1 °C 29.94in /  1013.8hPa NE 4.6mph /  7.4km/h 3.1mph /  5km/h 71% 0.00in /  0mm 362 W/m2
14:39 76.3 °F /  24.6 °C 65.8 °F /  18.8 °C 29.94in /  1013.8hPa NE 2.6mph /  4.2km/h 1.1mph /  1.8km/h 70% 0.00in /  0mm 349 W/m2
14:44 76.4 °F /  24.7 °C 66.4 °F /  19.1 °C 29.94in /  1013.8hPa NNE 1.8mph /  2.9km/h 0.7mph /  1.1km/h 71.3% 0.00in /  0mm 351 W/m2
14:49 76.6 °F /  24.8 °C 65.7 °F /  18.7 °C 29.94in /  1013.8hPa NNW 2.6mph /  4.2km/h 3mph /  4.8km/h 69% 0.00in /  0mm 352 W/m2
14:54 76.7 °F /  24.8 °C 66 °F /  18.9 °C 29.94in /  1013.8hPa NW 3.4mph /  5.5km/h 3.8mph /  6.1km/h 69.5% 0.00in /  0mm 354 W/m2
14:59 76.8 °F /  24.9 °C 66.1 °F /  18.9 °C 29.94in /  1013.8hPa NNE 3.4mph /  5.5km/h 5mph /  8km/h 69.4% 0.00in /  0mm 330 W/m2
15:04 76.8 °F /  24.9 °C 65.8 °F /  18.8 °C 29.94in /  1013.8hPa NE 2.9mph /  4.7km/h 5mph /  8km/h 68.8% 0.00in /  0mm 378 W/m2
15:08 76.8 °F /  24.9 °C 66.1 °F /  18.9 °C 29.94in /  1013.8hPa NNE 3.9mph /  6.3km/h 3.1mph /  5km/h 69.3% 0.00in /  0mm 375 W/m2
15:13 77 °F /  25 °C 66 °F /  18.9 °C 29.93in /  1013.4hPa ENE 3.7mph /  6km/h 5mph /  8km/h 69% 0.00in /  0mm 371 W/m2
15:19 77.2 °F /  25.1 °C 66.4 °F /  19.1 °C 29.93in /  1013.4hPa ENE 3.6mph /  5.8km/h 5mph /  8km/h 69.5% 0.00in /  0mm 358 W/m2
15:24 77.4 °F /  25.2 °C 66.7 °F /  19.3 °C 29.93in /  1013.4hPa NE 2.4mph /  3.9km/h 5mph /  8km/h 69.5% 0.00in /  0mm 326 W/m2
15:29 77.5 °F /  25.3 °C 66.5 °F /  19.2 °C 29.93in /  1013.4hPa NNE 4.2mph /  6.8km/h 4mph /  6.4km/h 69% 0.00in /  0mm 315 W/m2
15:33 77.5 °F /  25.3 °C 66.5 °F /  19.2 °C 29.93in /  1013.4hPa ENE 5.8mph /  9.3km/h 6mph /  9.7km/h 68.8% 0.00in /  0mm 306 W/m2
15:39 77 °F /  25 °C 65.8 °F /  18.8 °C 29.93in /  1013.4hPa ESE 6.5mph /  10.5km/h 4.2mph /  6.8km/h 68.5% 0.00in /  0mm 303 W/m2
15:44 76.8 °F /  24.9 °C 66.1 °F /  18.9 °C 29.92in /  1013.1hPa ESE 5.3mph /  8.5km/h 7mph /  11.3km/h 69.5% 0.00in /  0mm 297 W/m2
15:49 76.9 °F /  24.9 °C 66.5 °F /  19.2 °C 29.92in /  1013.1hPa ESE 5.3mph /  8.5km/h 3.8mph /  6.1km/h 70.4% 0.00in /  0mm 291 W/m2
15:54 77.1 °F /  25.1 °C 66.8 °F /  19.3 °C 29.92in /  1013.1hPa ESE 6.2mph /  10km/h 6.3mph /  10.1km/h 70.5% 0.00in /  0mm 286 W/m2
15:59 77.1 °F /  25.1 °C 67 °F /  19.4 °C 29.92in /  1013.1hPa ESE 6mph /  9.7km/h 7mph /  11.3km/h 71.1% 0.00in /  0mm 277 W/m2
16:04 76.8 °F /  24.9 °C 66.7 °F /  19.3 °C 29.92in /  1013.1hPa ESE 5mph /  8km/h 7mph /  11.3km/h 70.9% 0.00in /  0mm 265 W/m2
16:08 76.7 °F /  24.8 °C 67 °F /  19.4 °C 29.92in /  1013.1hPa ESE 6mph /  9.7km/h 7mph /  11.3km/h 72% 0.00in /  0mm 254 W/m2
16:14 76.5 °F /  24.7 °C 66.8 °F /  19.3 °C 29.92in /  1013.1hPa SE 7mph /  11.3km/h 7mph /  11.3km/h 72% 0.00in /  0mm 252 W/m2
16:19 76.5 °F /  24.7 °C 67.2 °F /  19.6 °C 29.92in /  1013.1hPa ESE 7.2mph /  11.6km/h 8mph /  12.9km/h 72.8% 0.00in /  0mm 265 W/m2
16:24 76.6 °F /  24.8 °C 67 °F /  19.4 °C 29.92in /  1013.1hPa ESE 5.9mph /  9.5km/h 8mph /  12.9km/h 72.3% 0.00in /  0mm 267 W/m2
16:29 76.5 °F /  24.7 °C 66.7 °F /  19.3 °C 29.92in /  1013.1hPa SE 5.7mph /  9.2km/h 7mph /  11.3km/h 71.8% 0.00in /  0mm 279 W/m2
16:34 76.5 °F /  24.7 °C 66.8 °F /  19.3 °C 29.92in /  1013.1hPa SE 5.9mph /  9.5km/h 6mph /  9.7km/h 72.1% 0.00in /  0mm 277 W/m2
16:39 76.3 °F /  24.6 °C 67.1 °F /  19.5 °C 29.92in /  1013.1hPa SE 5.1mph /  8.2km/h 7mph /  11.3km/h 73.1% 0.00in /  0mm 231 W/m2
16:44 76.2 °F /  24.6 °C 67.2 °F /  19.6 °C 29.92in /  1013.1hPa SE 4.6mph /  7.4km/h 6mph /  9.7km/h 73.8% 0.00in /  0mm 195 W/m2
16:48 76.1 °F /  24.5 °C 67.3 °F /  19.6 °C 29.92in /  1013.1hPa SE 5.8mph /  9.3km/h 3.8mph /  6.1km/h 74.4% 0.00in /  0mm 189 W/m2
16:54 76.2 °F /  24.6 °C 67.6 °F /  19.8 °C 29.92in /  1013.1hPa ESE 6.1mph /  9.8km/h 6mph /  9.7km/h 74.6% 0.00in /  0mm 179 W/m2
16:59 76.3 °F /  24.6 °C 67.8 °F /  19.9 °C 29.92in /  1013.1hPa ESE 5.8mph /  9.3km/h 8mph /  12.9km/h 75% 0.00in /  0mm 171 W/m2
17:04 76.2 °F /  24.6 °C 67.4 °F /  19.7 °C 29.92in /  1013.1hPa East 6.2mph /  10km/h 8mph /  12.9km/h 74.2% 0.00in /  0mm 161 W/m2
17:09 75.9 °F /  24.4 °C 67.1 °F /  19.5 °C 29.92in /  1013.1hPa ESE 5.7mph /  9.2km/h 8mph /  12.9km/h 74.1% 0.00in /  0mm 159 W/m2
17:14 75.8 °F /  24.3 °C 67.1 °F /  19.5 °C 29.92in /  1013.1hPa ESE 4.2mph /  6.8km/h 7mph /  11.3km/h 74.5% 0.00in /  0mm 152 W/m2
17:19 75.7 °F /  24.3 °C 67.3 °F /  19.6 °C 29.91in /  1012.8hPa East 4.5mph /  7.2km/h 5mph /  8km/h 75.4% 0.00in /  0mm 147 W/m2
17:24 75.7 °F /  24.3 °C 67.7 °F /  19.8 °C 29.91in /  1012.8hPa ENE 5.3mph /  8.5km/h 3.8mph /  6.1km/h 76.1% 0.00in /  0mm 142 W/m2
17:29 75.6 °F /  24.2 °C 67.9 °F /  19.9 °C 29.91in /  1012.8hPa NE 3mph /  4.8km/h 2mph /  3.2km/h 77% 0.00in /  0mm 136 W/m2
17:34 75.6 °F /  24.2 °C 67.8 °F /  19.9 °C 29.91in /  1012.8hPa NE 2.9mph /  4.7km/h 4mph /  6.4km/h 77% 0.00in /  0mm 124 W/m2
17:39 75.6 °F /  24.2 °C 67.8 °F /  19.9 °C 29.91in /  1012.8hPa NE 2.8mph /  4.5km/h 4mph /  6.4km/h 77% 0.00in /  0mm 106 W/m2
17:44 75.5 °F /  24.2 °C 67.8 °F /  19.9 °C 29.91in /  1012.8hPa NE 2.7mph /  4.3km/h 4mph /  6.4km/h 77% 0.00in /  0mm 90 W/m2
17:49 75.4 °F /  24.1 °C 67.7 °F /  19.8 °C 29.91in /  1012.8hPa NE 2.8mph /  4.5km/h 4mph /  6.4km/h 77% 0.00in /  0mm 81 W/m2
17:54 75.4 °F /  24.1 °C 67.7 °F /  19.8 °C 29.91in /  1012.8hPa ESE 3.6mph /  5.8km/h 4mph /  6.4km/h 77% 0.00in /  0mm 74 W/m2
17:58 75.2 °F /  24 °C 67.5 °F /  19.7 °C 29.91in /  1012.8hPa SE 3.4mph /  5.5km/h 5mph /  8km/h 77% 0.00in /  0mm 68 W/m2
18:03 75.2 °F /  24 °C 67.6 °F /  19.8 °C 29.91in /  1012.8hPa SSE 2.7mph /  4.3km/h 3mph /  4.8km/h 77.3% 0.00in /  0mm 60 W/m2
18:08 75.2 °F /  24 °C 67.9 °F /  19.9 °C 29.91in /  1012.8hPa SSE 2.5mph /  4km/h 3mph /  4.8km/h 77.9% 0.00in /  0mm 68 W/m2
18:14 75 °F /  23.9 °C 67.5 °F /  19.7 °C 29.91in /  1012.8hPa SE 3mph /  4.8km/h 3mph /  4.8km/h 77.4% 0.00in /  0mm 73 W/m2
18:19 75 °F /  23.9 °C 67.7 °F /  19.8 °C 29.91in /  1012.8hPa SE 3.8mph /  6.1km/h 4mph /  6.4km/h 77.9% 0.00in /  0mm 79 W/m2
18:24 75 °F /  23.9 °C 67.5 °F /  19.7 °C 29.91in /  1012.8hPa ESE 2.9mph /  4.7km/h 5mph /  8km/h 77.6% 0.00in /  0mm 92 W/m2
18:29 75 °F /  23.9 °C 67.7 °F /  19.8 °C 29.91in /  1012.8hPa ESE 3.6mph /  5.8km/h 4mph /  6.4km/h 78% 0.00in /  0mm 91 W/m2
18:34 75 °F /  23.9 °C 67.8 °F /  19.9 °C 29.91in /  1012.8hPa ESE 3.5mph /  5.6km/h 5mph /  8km/h 78.3% 0.00in /  0mm 84 W/m2
18:39 75 °F /  23.9 °C 67.8 °F /  19.9 °C 29.91in /  1012.8hPa ESE 4.3mph /  6.9km/h 5mph /  8km/h 78.4% 0.00in /  0mm 79 W/m2
18:44 75 °F /  23.9 °C 67.7 °F /  19.8 °C 29.91in /  1012.8hPa East 4.3mph /  6.9km/h 5mph /  8km/h 78% 0.00in /  0mm 67 W/m2
18:49 75 °F /  23.9 °C 67.3 °F /  19.6 °C 29.91in /  1012.8hPa East 3.8mph /  6.1km/h 2mph /  3.2km/h 77.1% 0.00in /  0mm 64 W/m2
18:54 75 °F /  23.9 °C 67.6 °F /  19.8 °C 29.91in /  1012.8hPa East 2.5mph /  4km/h 4mph /  6.4km/h 77.6% 0.00in /  0mm 62 W/m2
18:59 75 °F /  23.9 °C 67.7 °F /  19.8 °C 29.91in /  1012.8hPa NE 2.2mph /  3.5km/h 3mph /  4.8km/h 78% 0.00in /  0mm 59 W/m2
19:03 75 °F /  23.9 °C 67.7 °F /  19.8 °C 29.91in /  1012.8hPa East 3.7mph /  6km/h 5mph /  8km/h 78% 0.00in /  0mm 51 W/m2
19:09 74.9 °F /  23.8 °C 67.7 °F /  19.8 °C 29.91in /  1012.8hPa ESE 3.3mph /  5.3km/h 4mph /  6.4km/h 78.2% 0.00in /  0mm 46 W/m2
19:14 74.8 °F /  23.8 °C 67.5 °F /  19.7 °C 29.91in /  1012.8hPa SE 2.9mph /  4.7km/h 4mph /  6.4km/h 78% 0.00in /  0mm 39 W/m2
19:19 74.7 °F /  23.7 °C 67.6 °F /  19.8 °C 29.91in /  1012.8hPa SE 3.3mph /  5.3km/h 4mph /  6.4km/h 78.5% 0.00in /  0mm 27 W/m2
19:24 74.7 °F /  23.7 °C 67.5 °F /  19.7 °C 29.91in /  1012.8hPa East 2.6mph /  4.2km/h 4mph /  6.4km/h 78.4% 0.00in /  0mm 19 W/m2
19:29 74.5 °F /  23.6 °C 67.2 °F /  19.6 °C 29.91in /  1012.8hPa ESE 2.3mph /  3.7km/h 3mph /  4.8km/h 78% 0.00in /  0mm 13 W/m2
19:34 74.5 °F /  23.6 °C 67.2 °F /  19.6 °C 29.91in /  1012.8hPa SSE 0.3mph /  0.5km/h 3mph /  4.8km/h 78% 0.00in /  0mm 8 W/m2
19:39 74.3 °F /  23.5 °C 67.1 °F /  19.5 °C 29.91in /  1012.8hPa South 2.1mph /  3.4km/h 1.3mph /  2.1km/h 78.2% 0.00in /  0mm 2 W/m2
19:43 74.1 °F /  23.4 °C 67.2 °F /  19.6 °C 29.91in /  1012.8hPa SSW 0.2mph /  0.3km/h 0.2mph /  0.3km/h 79% 0.00in /  0mm 1 W/m2
19:49 74 °F /  23.3 °C 67.1 °F /  19.5 °C 29.91in /  1012.8hPa NNW 1.8mph /  2.9km/h 1.8mph /  2.9km/h 79% 0.00in /  0mm 0 W/m2
19:54 73.8 °F /  23.2 °C 67.2 °F /  19.6 °C 29.91in /  1012.8hPa North 1.3mph /  2.1km/h 0.7mph /  1.1km/h 80% 0.00in /  0mm 0 W/m2
19:59 73.6 °F /  23.1 °C 67 °F /  19.4 °C 29.91in /  1012.8hPa North 1.4mph /  2.3km/h 0.7mph /  1.1km/h 80% 0.00in /  0mm 0 W/m2
20:04 73.4 °F /  23 °C 66.8 °F /  19.3 °C 29.91in /  1012.8hPa WNW 2.2mph /  3.5km/h 2mph /  3.2km/h 80% 0.00in /  0mm 0 W/m2
20:09 73.2 °F /  22.9 °C 66.8 °F /  19.3 °C 29.91in /  1012.8hPa NNW 2.6mph /  4.2km/h 3mph /  4.8km/h 80.4% 0.00in /  0mm 0 W/m2
Knjazevac, Serbia
Compliments of Weather Underground - 2 mb